sensor_id;sensor_type;location;lat;lon;timestamp;P1;durP1;ratioP1;P2;durP2;ratioP2
13404;SDS011;6773;51.192;7.024;2022-12-24T00:01:22;12.87;;;3.80;;
13404;SDS011;6773;51.192;7.024;2022-12-24T00:03:48;18.43;;;3.50;;
13404;SDS011;6773;51.192;7.024;2022-12-24T00:06:15;16.17;;;4.20;;
13404;SDS011;6773;51.192;7.024;2022-12-24T00:08:46;17.77;;;3.97;;
13404;SDS011;6773;51.192;7.024;2022-12-24T00:11:12;18.07;;;4.03;;
13404;SDS011;6773;51.192;7.024;2022-12-24T00:13:38;13.10;;;2.87;;
13404;SDS011;6773;51.192;7.024;2022-12-24T00:16:04;15.57;;;3.47;;
13404;SDS011;6773;51.192;7.024;2022-12-24T00:18:29;15.83;;;3.80;;
13404;SDS011;6773;51.192;7.024;2022-12-24T00:20:55;17.83;;;4.17;;
13404;SDS011;6773;51.192;7.024;2022-12-24T00:23:21;15.37;;;3.87;;
13404;SDS011;6773;51.192;7.024;2022-12-24T00:25:47;26.93;;;6.10;;
13404;SDS011;6773;51.192;7.024;2022-12-24T00:28:13;16.50;;;5.13;;
13404;SDS011;6773;51.192;7.024;2022-12-24T00:30:39;20.10;;;4.33;;
13404;SDS011;6773;51.192;7.024;2022-12-24T00:33:06;12.40;;;3.80;;
13404;SDS011;6773;51.192;7.024;2022-12-24T00:35:35;13.73;;;3.90;;
13404;SDS011;6773;51.192;7.024;2022-12-24T00:38:02;22.40;;;4.63;;
13404;SDS011;6773;51.192;7.024;2022-12-24T00:40:28;13.70;;;3.43;;
13404;SDS011;6773;51.192;7.024;2022-12-24T00:42:54;17.67;;;3.80;;
13404;SDS011;6773;51.192;7.024;2022-12-24T00:45:20;12.87;;;3.53;;
13404;SDS011;6773;51.192;7.024;2022-12-24T00:47:47;22.10;;;3.73;;
13404;SDS011;6773;51.192;7.024;2022-12-24T00:50:12;19.20;;;4.10;;
13404;SDS011;6773;51.192;7.024;2022-12-24T00:52:38;19.00;;;3.90;;
13404;SDS011;6773;51.192;7.024;2022-12-24T00:55:04;22.97;;;3.90;;
13404;SDS011;6773;51.192;7.024;2022-12-24T00:57:31;15.57;;;4.60;;
13404;SDS011;6773;51.192;7.024;2022-12-24T00:59:56;17.53;;;4.30;;
13404;SDS011;6773;51.192;7.024;2022-12-24T01:02:22;16.53;;;4.13;;
13404;SDS011;6773;51.192;7.024;2022-12-24T01:04:48;20.57;;;7.53;;
13404;SDS011;6773;51.192;7.024;2022-12-24T01:07:32;19.70;;;4.37;;
13404;SDS011;6773;51.192;7.024;2022-12-24T01:09:58;14.63;;;3.73;;
13404;SDS011;6773;51.192;7.024;2022-12-24T01:12:24;16.20;;;4.00;;
13404;SDS011;6773;51.192;7.024;2022-12-24T01:14:49;17.90;;;4.13;;
13404;SDS011;6773;51.192;7.024;2022-12-24T01:17:15;15.13;;;3.60;;
13404;SDS011;6773;51.192;7.024;2022-12-24T01:19:41;23.93;;;4.40;;
13404;SDS011;6773;51.192;7.024;2022-12-24T01:22:07;13.43;;;3.40;;
13404;SDS011;6773;51.192;7.024;2022-12-24T01:24:33;18.23;;;4.30;;
13404;SDS011;6773;51.192;7.024;2022-12-24T01:26:59;22.73;;;4.07;;
13404;SDS011;6773;51.192;7.024;2022-12-24T01:29:24;17.03;;;4.10;;
13404;SDS011;6773;51.192;7.024;2022-12-24T01:31:50;21.60;;;4.50;;
13404;SDS011;6773;51.192;7.024;2022-12-24T01:34:15;20.53;;;4.53;;
13404;SDS011;6773;51.192;7.024;2022-12-24T01:36:41;22.90;;;4.30;;
13404;SDS011;6773;51.192;7.024;2022-12-24T01:39:07;22.80;;;4.80;;
13404;SDS011;6773;51.192;7.024;2022-12-24T01:41:33;17.40;;;4.47;;
13404;SDS011;6773;51.192;7.024;2022-12-24T01:44:27;16.27;;;4.10;;
13404;SDS011;6773;51.192;7.024;2022-12-24T01:49:39;18.20;;;4.10;;
13404;SDS011;6773;51.192;7.024;2022-12-24T01:52:13;15.90;;;3.17;;
13404;SDS011;6773;51.192;7.024;2022-12-24T01:54:59;21.37;;;5.10;;
13404;SDS011;6773;51.192;7.024;2022-12-24T01:57:29;21.27;;;4.23;;
13404;SDS011;6773;51.192;7.024;2022-12-24T01:59:59;22.00;;;4.73;;
13404;SDS011;6773;51.192;7.024;2022-12-24T02:02:30;21.80;;;5.07;;
13404;SDS011;6773;51.192;7.024;2022-12-24T02:07:51;24.63;;;4.40;;
13404;SDS011;6773;51.192;7.024;2022-12-24T02:10:17;22.23;;;4.37;;
13404;SDS011;6773;51.192;7.024;2022-12-24T02:12:43;24.97;;;4.70;;
13404;SDS011;6773;51.192;7.024;2022-12-24T02:15:10;23.13;;;4.93;;
13404;SDS011;6773;51.192;7.024;2022-12-24T02:17:42;28.13;;;5.33;;
13404;SDS011;6773;51.192;7.024;2022-12-24T02:26:17;21.50;;;4.37;;
13404;SDS011;6773;51.192;7.024;2022-12-24T02:32:14;19.07;;;4.07;;
13404;SDS011;6773;51.192;7.024;2022-12-24T02:34:49;14.57;;;4.10;;
13404;SDS011;6773;51.192;7.024;2022-12-24T02:39:56;16.87;;;4.20;;
13404;SDS011;6773;51.192;7.024;2022-12-24T02:42:29;18.67;;;4.07;;
13404;SDS011;6773;51.192;7.024;2022-12-24T02:45:01;13.67;;;3.87;;
13404;SDS011;6773;51.192;7.024;2022-12-24T02:47:48;20.67;;;4.87;;
13404;SDS011;6773;51.192;7.024;2022-12-24T02:50:16;19.43;;;3.90;;
13404;SDS011;6773;51.192;7.024;2022-12-24T02:52:43;14.97;;;3.33;;
13404;SDS011;6773;51.192;7.024;2022-12-24T03:00:59;11.60;;;3.43;;
13404;SDS011;6773;51.192;7.024;2022-12-24T03:09:01;17.00;;;3.70;;
13404;SDS011;6773;51.192;7.024;2022-12-24T03:11:36;14.97;;;4.10;;
13404;SDS011;6773;51.192;7.024;2022-12-24T03:14:07;17.27;;;4.93;;
13404;SDS011;6773;51.192;7.024;2022-12-24T03:16:33;21.53;;;4.40;;
13404;SDS011;6773;51.192;7.024;2022-12-24T03:18:58;19.20;;;3.90;;
13404;SDS011;6773;51.192;7.024;2022-12-24T03:21:27;14.40;;;3.40;;
13404;SDS011;6773;51.192;7.024;2022-12-24T03:23:56;20.20;;;4.37;;
13404;SDS011;6773;51.192;7.024;2022-12-24T03:26:22;17.40;;;4.67;;
13404;SDS011;6773;51.192;7.024;2022-12-24T03:28:49;22.60;;;3.70;;
13404;SDS011;6773;51.192;7.024;2022-12-24T03:31:15;19.93;;;4.17;;
13404;SDS011;6773;51.192;7.024;2022-12-24T03:33:42;15.83;;;3.30;;
13404;SDS011;6773;51.192;7.024;2022-12-24T03:36:08;11.77;;;3.70;;
13404;SDS011;6773;51.192;7.024;2022-12-24T03:38:35;20.40;;;3.43;;
13404;SDS011;6773;51.192;7.024;2022-12-24T03:41:00;16.53;;;4.03;;
13404;SDS011;6773;51.192;7.024;2022-12-24T03:43:27;20.57;;;4.00;;
13404;SDS011;6773;51.192;7.024;2022-12-24T03:45:53;14.27;;;3.30;;
13404;SDS011;6773;51.192;7.024;2022-12-24T03:48:18;21.73;;;5.17;;
13404;SDS011;6773;51.192;7.024;2022-12-24T03:50:44;23.23;;;5.13;;
13404;SDS011;6773;51.192;7.024;2022-12-24T03:53:10;11.90;;;3.47;;
13404;SDS011;6773;51.192;7.024;2022-12-24T03:55:36;20.23;;;4.00;;
13404;SDS011;6773;51.192;7.024;2022-12-24T03:58:03;13.83;;;3.97;;
13404;SDS011;6773;51.192;7.024;2022-12-24T04:00:28;14.60;;;3.70;;
13404;SDS011;6773;51.192;7.024;2022-12-24T04:02:54;13.47;;;3.37;;
13404;SDS011;6773;51.192;7.024;2022-12-24T04:05:20;11.47;;;3.43;;
13404;SDS011;6773;51.192;7.024;2022-12-24T04:07:46;13.47;;;3.43;;
13404;SDS011;6773;51.192;7.024;2022-12-24T04:10:12;12.27;;;3.60;;
13404;SDS011;6773;51.192;7.024;2022-12-24T04:12:38;9.33;;;3.50;;
13404;SDS011;6773;51.192;7.024;2022-12-24T04:15:04;12.13;;;3.37;;
13404;SDS011;6773;51.192;7.024;2022-12-24T04:17:30;12.50;;;3.77;;
13404;SDS011;6773;51.192;7.024;2022-12-24T04:19:56;11.27;;;3.10;;
13404;SDS011;6773;51.192;7.024;2022-12-24T04:22:22;17.60;;;3.93;;
13404;SDS011;6773;51.192;7.024;2022-12-24T04:24:47;11.93;;;2.90;;
13404;SDS011;6773;51.192;7.024;2022-12-24T04:27:13;8.30;;;2.93;;
13404;SDS011;6773;51.192;7.024;2022-12-24T04:29:39;11.23;;;2.97;;
13404;SDS011;6773;51.192;7.024;2022-12-24T04:32:05;7.53;;;2.93;;
13404;SDS011;6773;51.192;7.024;2022-12-24T04:34:31;18.17;;;3.50;;
13404;SDS011;6773;51.192;7.024;2022-12-24T04:36:56;14.13;;;3.07;;
13404;SDS011;6773;51.192;7.024;2022-12-24T04:39:22;11.73;;;3.17;;
13404;SDS011;6773;51.192;7.024;2022-12-24T04:41:48;12.40;;;3.77;;
13404;SDS011;6773;51.192;7.024;2022-12-24T04:44:14;9.33;;;2.77;;
13404;SDS011;6773;51.192;7.024;2022-12-24T04:46:39;7.73;;;3.33;;
13404;SDS011;6773;51.192;7.024;2022-12-24T04:49:06;14.30;;;4.20;;
13404;SDS011;6773;51.192;7.024;2022-12-24T04:51:32;12.43;;;3.37;;
13404;SDS011;6773;51.192;7.024;2022-12-24T04:53:58;12.17;;;3.03;;
13404;SDS011;6773;51.192;7.024;2022-12-24T04:56:25;12.23;;;2.90;;
13404;SDS011;6773;51.192;7.024;2022-12-24T04:58:53;14.93;;;3.80;;
13404;SDS011;6773;51.192;7.024;2022-12-24T05:01:20;11.90;;;3.20;;
13404;SDS011;6773;51.192;7.024;2022-12-24T05:03:50;9.53;;;3.07;;
13404;SDS011;6773;51.192;7.024;2022-12-24T05:06:18;13.03;;;2.43;;
13404;SDS011;6773;51.192;7.024;2022-12-24T05:08:46;13.63;;;3.47;;
13404;SDS011;6773;51.192;7.024;2022-12-24T05:11:12;9.00;;;3.03;;
13404;SDS011;6773;51.192;7.024;2022-12-24T05:13:39;14.83;;;4.90;;
13404;SDS011;6773;51.192;7.024;2022-12-24T05:16:05;14.37;;;3.70;;
13404;SDS011;6773;51.192;7.024;2022-12-24T05:18:31;10.77;;;3.17;;
13404;SDS011;6773;51.192;7.024;2022-12-24T05:20:57;17.53;;;4.50;;
13404;SDS011;6773;51.192;7.024;2022-12-24T05:23:24;17.73;;;3.70;;
13404;SDS011;6773;51.192;7.024;2022-12-24T05:26:15;9.07;;;3.13;;
13404;SDS011;6773;51.192;7.024;2022-12-24T05:28:53;7.83;;;3.20;;
13404;SDS011;6773;51.192;7.024;2022-12-24T05:31:20;11.10;;;2.90;;
13404;SDS011;6773;51.192;7.024;2022-12-24T05:33:47;13.53;;;3.87;;
13404;SDS011;6773;51.192;7.024;2022-12-24T05:36:13;12.27;;;3.13;;
13404;SDS011;6773;51.192;7.024;2022-12-24T05:38:39;15.80;;;3.40;;
13404;SDS011;6773;51.192;7.024;2022-12-24T05:41:05;18.37;;;3.87;;
13404;SDS011;6773;51.192;7.024;2022-12-24T05:43:33;18.37;;;3.83;;
13404;SDS011;6773;51.192;7.024;2022-12-24T05:46:01;12.40;;;3.70;;
13404;SDS011;6773;51.192;7.024;2022-12-24T05:48:33;9.47;;;2.83;;
13404;SDS011;6773;51.192;7.024;2022-12-24T05:51:02;14.60;;;4.13;;
13404;SDS011;6773;51.192;7.024;2022-12-24T05:53:29;16.10;;;3.73;;
13404;SDS011;6773;51.192;7.024;2022-12-24T05:56:00;10.80;;;4.50;;
13404;SDS011;6773;51.192;7.024;2022-12-24T05:58:29;14.13;;;3.93;;
13404;SDS011;6773;51.192;7.024;2022-12-24T06:00:55;17.47;;;4.37;;
13404;SDS011;6773;51.192;7.024;2022-12-24T06:03:21;12.00;;;3.67;;
13404;SDS011;6773;51.192;7.024;2022-12-24T06:05:47;11.20;;;3.67;;
13404;SDS011;6773;51.192;7.024;2022-12-24T06:08:12;15.60;;;4.07;;
13404;SDS011;6773;51.192;7.024;2022-12-24T06:10:38;11.30;;;3.70;;
13404;SDS011;6773;51.192;7.024;2022-12-24T06:13:03;14.97;;;4.40;;
13404;SDS011;6773;51.192;7.024;2022-12-24T06:15:29;19.17;;;4.63;;
13404;SDS011;6773;51.192;7.024;2022-12-24T06:17:54;12.40;;;3.73;;
13404;SDS011;6773;51.192;7.024;2022-12-24T06:20:20;13.17;;;3.60;;
13404;SDS011;6773;51.192;7.024;2022-12-24T06:22:46;14.43;;;4.63;;
13404;SDS011;6773;51.192;7.024;2022-12-24T06:25:12;13.93;;;3.80;;
13404;SDS011;6773;51.192;7.024;2022-12-24T06:27:38;16.17;;;4.23;;
13404;SDS011;6773;51.192;7.024;2022-12-24T06:30:04;11.43;;;3.60;;
13404;SDS011;6773;51.192;7.024;2022-12-24T06:32:30;15.50;;;4.03;;
13404;SDS011;6773;51.192;7.024;2022-12-24T06:34:56;16.23;;;3.93;;
13404;SDS011;6773;51.192;7.024;2022-12-24T06:37:22;12.77;;;3.97;;
13404;SDS011;6773;51.192;7.024;2022-12-24T06:39:47;18.33;;;3.93;;
13404;SDS011;6773;51.192;7.024;2022-12-24T06:42:13;15.77;;;4.40;;
13404;SDS011;6773;51.192;7.024;2022-12-24T06:44:39;13.53;;;3.43;;
13404;SDS011;6773;51.192;7.024;2022-12-24T06:47:04;16.73;;;4.13;;
13404;SDS011;6773;51.192;7.024;2022-12-24T06:49:30;15.07;;;3.97;;
13404;SDS011;6773;51.192;7.024;2022-12-24T06:51:56;17.93;;;4.00;;
13404;SDS011;6773;51.192;7.024;2022-12-24T06:54:21;15.40;;;4.40;;
13404;SDS011;6773;51.192;7.024;2022-12-24T06:56:47;17.73;;;4.63;;
13404;SDS011;6773;51.192;7.024;2022-12-24T06:59:13;13.13;;;3.70;;
13404;SDS011;6773;51.192;7.024;2022-12-24T07:01:38;16.73;;;4.37;;
13404;SDS011;6773;51.192;7.024;2022-12-24T07:04:04;17.13;;;4.87;;
13404;SDS011;6773;51.192;7.024;2022-12-24T07:06:29;15.67;;;3.87;;
13404;SDS011;6773;51.192;7.024;2022-12-24T07:08:55;26.93;;;5.77;;
13404;SDS011;6773;51.192;7.024;2022-12-24T07:11:22;22.40;;;4.67;;
13404;SDS011;6773;51.192;7.024;2022-12-24T07:13:49;18.33;;;4.73;;
13404;SDS011;6773;51.192;7.024;2022-12-24T07:16:15;18.90;;;4.37;;
13404;SDS011;6773;51.192;7.024;2022-12-24T07:18:41;19.50;;;4.70;;
13404;SDS011;6773;51.192;7.024;2022-12-24T07:21:07;21.30;;;4.73;;
13404;SDS011;6773;51.192;7.024;2022-12-24T07:23:33;18.43;;;5.93;;
13404;SDS011;6773;51.192;7.024;2022-12-24T07:25:59;20.17;;;5.03;;
13404;SDS011;6773;51.192;7.024;2022-12-24T07:28:26;17.87;;;4.53;;
13404;SDS011;6773;51.192;7.024;2022-12-24T07:30:52;18.07;;;5.20;;
13404;SDS011;6773;51.192;7.024;2022-12-24T07:33:18;25.70;;;5.43;;
13404;SDS011;6773;51.192;7.024;2022-12-24T07:35:44;17.10;;;4.33;;
13404;SDS011;6773;51.192;7.024;2022-12-24T07:38:10;21.40;;;4.63;;
13404;SDS011;6773;51.192;7.024;2022-12-24T07:40:36;20.93;;;5.00;;
13404;SDS011;6773;51.192;7.024;2022-12-24T07:43:02;19.93;;;5.30;;
13404;SDS011;6773;51.192;7.024;2022-12-24T07:45:27;19.77;;;4.43;;
13404;SDS011;6773;51.192;7.024;2022-12-24T07:47:53;20.20;;;3.90;;
13404;SDS011;6773;51.192;7.024;2022-12-24T07:50:18;17.27;;;4.73;;
13404;SDS011;6773;51.192;7.024;2022-12-24T07:52:44;13.37;;;3.90;;
13404;SDS011;6773;51.192;7.024;2022-12-24T07:55:10;22.43;;;5.67;;
13404;SDS011;6773;51.192;7.024;2022-12-24T07:57:35;18.20;;;4.10;;
13404;SDS011;6773;51.192;7.024;2022-12-24T08:00:01;20.63;;;4.27;;
13404;SDS011;6773;51.192;7.024;2022-12-24T08:02:28;18.87;;;4.37;;
13404;SDS011;6773;51.192;7.024;2022-12-24T08:04:54;21.23;;;5.10;;
13404;SDS011;6773;51.192;7.024;2022-12-24T08:07:20;22.07;;;4.50;;
13404;SDS011;6773;51.192;7.024;2022-12-24T08:09:45;22.87;;;4.77;;
13404;SDS011;6773;51.192;7.024;2022-12-24T08:12:11;20.47;;;4.60;;
13404;SDS011;6773;51.192;7.024;2022-12-24T08:14:37;19.70;;;3.97;;
13404;SDS011;6773;51.192;7.024;2022-12-24T08:17:02;18.90;;;4.90;;
13404;SDS011;6773;51.192;7.024;2022-12-24T08:19:28;18.37;;;4.40;;
13404;SDS011;6773;51.192;7.024;2022-12-24T08:21:54;19.67;;;4.10;;
13404;SDS011;6773;51.192;7.024;2022-12-24T08:24:20;18.90;;;4.57;;
13404;SDS011;6773;51.192;7.024;2022-12-24T08:26:46;21.53;;;4.80;;
13404;SDS011;6773;51.192;7.024;2022-12-24T08:29:11;18.70;;;4.50;;
13404;SDS011;6773;51.192;7.024;2022-12-24T08:31:37;25.30;;;5.20;;
13404;SDS011;6773;51.192;7.024;2022-12-24T08:34:04;22.77;;;4.67;;
13404;SDS011;6773;51.192;7.024;2022-12-24T08:36:30;23.73;;;4.87;;
13404;SDS011;6773;51.192;7.024;2022-12-24T08:38:56;18.93;;;5.37;;
13404;SDS011;6773;51.192;7.024;2022-12-24T08:41:22;20.63;;;4.40;;
13404;SDS011;6773;51.192;7.024;2022-12-24T08:43:48;21.17;;;4.80;;
13404;SDS011;6773;51.192;7.024;2022-12-24T08:46:14;19.60;;;4.30;;
13404;SDS011;6773;51.192;7.024;2022-12-24T08:48:39;27.73;;;5.10;;
13404;SDS011;6773;51.192;7.024;2022-12-24T08:51:06;17.53;;;3.47;;
13404;SDS011;6773;51.192;7.024;2022-12-24T08:53:32;22.03;;;4.73;;
13404;SDS011;6773;51.192;7.024;2022-12-24T08:56:02;22.50;;;4.53;;
13404;SDS011;6773;51.192;7.024;2022-12-24T08:58:28;22.90;;;4.67;;
13404;SDS011;6773;51.192;7.024;2022-12-24T09:00:54;17.70;;;4.53;;
13404;SDS011;6773;51.192;7.024;2022-12-24T09:03:20;22.80;;;5.90;;
13404;SDS011;6773;51.192;7.024;2022-12-24T09:05:45;16.10;;;4.00;;
13404;SDS011;6773;51.192;7.024;2022-12-24T09:08:11;20.73;;;5.73;;
13404;SDS011;6773;51.192;7.024;2022-12-24T09:10:37;15.67;;;4.10;;
13404;SDS011;6773;51.192;7.024;2022-12-24T09:13:03;19.23;;;3.83;;
13404;SDS011;6773;51.192;7.024;2022-12-24T09:15:29;19.67;;;5.30;;
13404;SDS011;6773;51.192;7.024;2022-12-24T09:17:55;20.60;;;5.20;;
13404;SDS011;6773;51.192;7.024;2022-12-24T09:20:21;19.47;;;4.57;;
13404;SDS011;6773;51.192;7.024;2022-12-24T09:22:46;21.60;;;4.77;;
13404;SDS011;6773;51.192;7.024;2022-12-24T09:25:12;17.87;;;4.30;;
13404;SDS011;6773;51.192;7.024;2022-12-24T09:27:38;19.63;;;4.77;;
13404;SDS011;6773;51.192;7.024;2022-12-24T09:30:04;17.77;;;4.20;;
13404;SDS011;6773;51.192;7.024;2022-12-24T09:32:31;19.53;;;5.27;;
13404;SDS011;6773;51.192;7.024;2022-12-24T09:34:57;15.93;;;4.10;;
13404;SDS011;6773;51.192;7.024;2022-12-24T09:37:23;19.20;;;3.77;;
13404;SDS011;6773;51.192;7.024;2022-12-24T09:39:48;20.83;;;4.67;;
13404;SDS011;6773;51.192;7.024;2022-12-24T09:42:50;16.47;;;3.90;;
13404;SDS011;6773;51.192;7.024;2022-12-24T09:45:17;25.07;;;4.90;;
13404;SDS011;6773;51.192;7.024;2022-12-24T09:47:57;18.77;;;4.83;;
13404;SDS011;6773;51.192;7.024;2022-12-24T09:50:30;20.00;;;4.63;;
13404;SDS011;6773;51.192;7.024;2022-12-24T09:53:06;16.83;;;4.87;;
13404;SDS011;6773;51.192;7.024;2022-12-24T09:55:43;15.30;;;4.37;;
13404;SDS011;6773;51.192;7.024;2022-12-24T09:58:15;17.27;;;4.07;;
13404;SDS011;6773;51.192;7.024;2022-12-24T10:00:49;15.80;;;3.67;;
13404;SDS011;6773;51.192;7.024;2022-12-24T10:03:16;22.77;;;4.07;;
13404;SDS011;6773;51.192;7.024;2022-12-24T10:11:06;19.53;;;4.40;;
13404;SDS011;6773;51.192;7.024;2022-12-24T10:13:48;24.40;;;4.77;;
13404;SDS011;6773;51.192;7.024;2022-12-24T10:16:42;18.30;;;5.77;;
13404;SDS011;6773;51.192;7.024;2022-12-24T10:19:36;17.87;;;4.57;;
13404;SDS011;6773;51.192;7.024;2022-12-24T10:22:19;18.50;;;5.33;;
13404;SDS011;6773;51.192;7.024;2022-12-24T10:25:03;20.87;;;5.93;;
13404;SDS011;6773;51.192;7.024;2022-12-24T10:27:49;26.47;;;4.53;;
13404;SDS011;6773;51.192;7.024;2022-12-24T10:30:19;26.67;;;4.80;;
13404;SDS011;6773;51.192;7.024;2022-12-24T10:32:47;17.73;;;4.10;;
13404;SDS011;6773;51.192;7.024;2022-12-24T10:37:44;16.27;;;4.10;;
13404;SDS011;6773;51.192;7.024;2022-12-24T10:43:13;14.43;;;4.10;;
13404;SDS011;6773;51.192;7.024;2022-12-24T10:45:45;24.07;;;5.60;;
13404;SDS011;6773;51.192;7.024;2022-12-24T10:51:21;22.47;;;5.17;;
13404;SDS011;6773;51.192;7.024;2022-12-24T10:56:37;22.00;;;4.80;;
13404;SDS011;6773;51.192;7.024;2022-12-24T10:59:05;21.63;;;4.53;;
13404;SDS011;6773;51.192;7.024;2022-12-24T11:01:46;21.53;;;5.67;;
13404;SDS011;6773;51.192;7.024;2022-12-24T11:04:14;19.60;;;4.93;;
13404;SDS011;6773;51.192;7.024;2022-12-24T11:06:58;31.00;;;5.80;;
13404;SDS011;6773;51.192;7.024;2022-12-24T11:09:32;30.03;;;5.40;;
13404;SDS011;6773;51.192;7.024;2022-12-24T11:12:05;24.13;;;5.47;;
13404;SDS011;6773;51.192;7.024;2022-12-24T11:14:42;22.17;;;5.70;;
13404;SDS011;6773;51.192;7.024;2022-12-24T11:17:11;21.53;;;5.40;;
13404;SDS011;6773;51.192;7.024;2022-12-24T11:19:46;18.20;;;4.80;;
13404;SDS011;6773;51.192;7.024;2022-12-24T11:22:18;14.47;;;4.40;;
13404;SDS011;6773;51.192;7.024;2022-12-24T11:24:55;25.10;;;4.87;;
13404;SDS011;6773;51.192;7.024;2022-12-24T11:27:22;17.33;;;4.80;;
13404;SDS011;6773;51.192;7.024;2022-12-24T11:30:12;21.30;;;4.93;;
13404;SDS011;6773;51.192;7.024;2022-12-24T11:32:39;16.73;;;4.70;;
13404;SDS011;6773;51.192;7.024;2022-12-24T11:35:14;22.47;;;5.23;;
13404;SDS011;6773;51.192;7.024;2022-12-24T11:37:42;20.97;;;4.47;;
13404;SDS011;6773;51.192;7.024;2022-12-24T11:40:18;23.70;;;5.20;;
13404;SDS011;6773;51.192;7.024;2022-12-24T11:42:46;18.30;;;4.27;;
13404;SDS011;6773;51.192;7.024;2022-12-24T11:45:24;21.70;;;5.00;;
13404;SDS011;6773;51.192;7.024;2022-12-24T11:47:52;19.43;;;5.17;;
13404;SDS011;6773;51.192;7.024;2022-12-24T11:50:23;15.20;;;4.03;;
13404;SDS011;6773;51.192;7.024;2022-12-24T11:53:25;27.20;;;5.97;;
13404;SDS011;6773;51.192;7.024;2022-12-24T11:55:49;24.60;;;4.70;;
13404;SDS011;6773;51.192;7.024;2022-12-24T11:58:27;21.87;;;4.97;;
13404;SDS011;6773;51.192;7.024;2022-12-24T12:01:02;24.27;;;5.77;;
13404;SDS011;6773;51.192;7.024;2022-12-24T12:03:34;22.37;;;5.80;;
13404;SDS011;6773;51.192;7.024;2022-12-24T12:06:07;19.97;;;4.80;;
13404;SDS011;6773;51.192;7.024;2022-12-24T12:08:59;23.30;;;5.07;;
13404;SDS011;6773;51.192;7.024;2022-12-24T12:11:29;19.77;;;4.33;;
13404;SDS011;6773;51.192;7.024;2022-12-24T12:13:58;14.30;;;4.67;;
13404;SDS011;6773;51.192;7.024;2022-12-24T12:16:36;19.37;;;4.80;;
13404;SDS011;6773;51.192;7.024;2022-12-24T12:19:30;16.17;;;4.33;;
13404;SDS011;6773;51.192;7.024;2022-12-24T12:22:02;20.63;;;4.67;;
13404;SDS011;6773;51.192;7.024;2022-12-24T12:24:39;20.67;;;4.43;;
13404;SDS011;6773;51.192;7.024;2022-12-24T12:30:00;18.20;;;4.37;;
13404;SDS011;6773;51.192;7.024;2022-12-24T12:32:33;18.30;;;4.57;;
13404;SDS011;6773;51.192;7.024;2022-12-24T12:35:22;24.37;;;4.43;;
13404;SDS011;6773;51.192;7.024;2022-12-24T12:38:03;19.33;;;4.83;;
13404;SDS011;6773;51.192;7.024;2022-12-24T12:46:28;12.67;;;4.33;;
13404;SDS011;6773;51.192;7.024;2022-12-24T12:57:14;15.27;;;3.70;;
13404;SDS011;6773;51.192;7.024;2022-12-24T12:59:44;20.43;;;4.90;;
13404;SDS011;6773;51.192;7.024;2022-12-24T13:04:59;15.77;;;4.40;;
13404;SDS011;6773;51.192;7.024;2022-12-24T13:07:50;17.37;;;4.47;;
13404;SDS011;6773;51.192;7.024;2022-12-24T13:15:40;15.67;;;4.07;;
13404;SDS011;6773;51.192;7.024;2022-12-24T13:21:14;13.83;;;3.73;;
13404;SDS011;6773;51.192;7.024;2022-12-24T13:23:42;16.20;;;3.43;;
13404;SDS011;6773;51.192;7.024;2022-12-24T13:26:09;15.93;;;3.90;;
13404;SDS011;6773;51.192;7.024;2022-12-24T13:28:37;15.10;;;4.37;;
13404;SDS011;6773;51.192;7.024;2022-12-24T13:36:11;12.47;;;3.43;;
13404;SDS011;6773;51.192;7.024;2022-12-24T13:55:17;12.20;;;3.80;;
13404;SDS011;6773;51.192;7.024;2022-12-24T13:57:39;16.33;;;3.30;;
13404;SDS011;6773;51.192;7.024;2022-12-24T14:02:50;7.63;;;2.83;;
13404;SDS011;6773;51.192;7.024;2022-12-24T14:05:35;13.73;;;3.30;;
13404;SDS011;6773;51.192;7.024;2022-12-24T14:08:03;16.63;;;3.90;;
13404;SDS011;6773;51.192;7.024;2022-12-24T14:10:39;13.07;;;3.27;;
13404;SDS011;6773;51.192;7.024;2022-12-24T14:16:04;12.47;;;2.80;;
13404;SDS011;6773;51.192;7.024;2022-12-24T14:18:37;10.50;;;3.30;;
13404;SDS011;6773;51.192;7.024;2022-12-24T14:21:04;14.90;;;3.67;;
13404;SDS011;6773;51.192;7.024;2022-12-24T14:23:44;14.93;;;4.20;;
13404;SDS011;6773;51.192;7.024;2022-12-24T14:26:23;12.37;;;3.63;;
13404;SDS011;6773;51.192;7.024;2022-12-24T14:28:59;18.10;;;4.13;;
13404;SDS011;6773;51.192;7.024;2022-12-24T14:31:29;17.23;;;3.83;;
13404;SDS011;6773;51.192;7.024;2022-12-24T14:34:08;10.00;;;3.60;;
13404;SDS011;6773;51.192;7.024;2022-12-24T14:36:37;18.33;;;3.67;;
13404;SDS011;6773;51.192;7.024;2022-12-24T14:39:04;16.90;;;3.67;;
13404;SDS011;6773;51.192;7.024;2022-12-24T14:41:44;13.20;;;3.77;;
13404;SDS011;6773;51.192;7.024;2022-12-24T14:44:33;14.57;;;3.70;;
13404;SDS011;6773;51.192;7.024;2022-12-24T14:47:11;16.67;;;4.20;;
13404;SDS011;6773;51.192;7.024;2022-12-24T14:58:13;18.23;;;5.03;;
13404;SDS011;6773;51.192;7.024;2022-12-24T15:00:55;15.20;;;3.50;;
13404;SDS011;6773;51.192;7.024;2022-12-24T15:03:23;13.10;;;4.40;;
13404;SDS011;6773;51.192;7.024;2022-12-24T15:05:55;15.73;;;3.73;;
13404;SDS011;6773;51.192;7.024;2022-12-24T15:11:08;15.00;;;4.53;;
13404;SDS011;6773;51.192;7.024;2022-12-24T15:13:39;17.50;;;4.17;;
13404;SDS011;6773;51.192;7.024;2022-12-24T15:16:07;19.63;;;4.10;;
13404;SDS011;6773;51.192;7.024;2022-12-24T15:18:41;12.50;;;3.87;;
13404;SDS011;6773;51.192;7.024;2022-12-24T15:21:14;19.67;;;4.47;;
13404;SDS011;6773;51.192;7.024;2022-12-24T15:23:46;21.47;;;4.50;;
13404;SDS011;6773;51.192;7.024;2022-12-24T15:26:15;14.73;;;4.30;;
13404;SDS011;6773;51.192;7.024;2022-12-24T15:28:48;13.93;;;4.10;;
13404;SDS011;6773;51.192;7.024;2022-12-24T15:31:15;17.57;;;4.20;;
13404;SDS011;6773;51.192;7.024;2022-12-24T15:33:44;14.17;;;4.43;;
13404;SDS011;6773;51.192;7.024;2022-12-24T15:36:11;18.70;;;5.77;;
13404;SDS011;6773;51.192;7.024;2022-12-24T15:38:42;16.70;;;3.93;;
13404;SDS011;6773;51.192;7.024;2022-12-24T15:41:19;16.40;;;4.97;;
13404;SDS011;6773;51.192;7.024;2022-12-24T15:43:47;16.50;;;4.93;;
13404;SDS011;6773;51.192;7.024;2022-12-24T15:46:24;14.23;;;3.30;;
13404;SDS011;6773;51.192;7.024;2022-12-24T15:48:52;15.87;;;4.97;;
13404;SDS011;6773;51.192;7.024;2022-12-24T15:51:26;13.40;;;5.03;;
13404;SDS011;6773;51.192;7.024;2022-12-24T15:54:01;18.10;;;4.43;;
13404;SDS011;6773;51.192;7.024;2022-12-24T15:56:31;17.13;;;4.37;;
13404;SDS011;6773;51.192;7.024;2022-12-24T16:01:52;16.93;;;4.80;;
13404;SDS011;6773;51.192;7.024;2022-12-24T16:04:22;23.20;;;5.40;;
13404;SDS011;6773;51.192;7.024;2022-12-24T16:07:00;21.97;;;6.03;;
13404;SDS011;6773;51.192;7.024;2022-12-24T16:09:30;19.30;;;5.83;;
13404;SDS011;6773;51.192;7.024;2022-12-24T16:12:03;20.60;;;5.30;;
13404;SDS011;6773;51.192;7.024;2022-12-24T16:14:50;23.20;;;5.60;;
13404;SDS011;6773;51.192;7.024;2022-12-24T16:17:19;23.30;;;5.80;;
13404;SDS011;6773;51.192;7.024;2022-12-24T16:19:48;22.07;;;5.73;;
13404;SDS011;6773;51.192;7.024;2022-12-24T16:22:18;16.80;;;6.07;;
13404;SDS011;6773;51.192;7.024;2022-12-24T16:24:59;24.57;;;7.03;;
13404;SDS011;6773;51.192;7.024;2022-12-24T16:27:39;17.77;;;6.50;;
13404;SDS011;6773;51.192;7.024;2022-12-24T16:30:05;27.17;;;13.73;;
13404;SDS011;6773;51.192;7.024;2022-12-24T16:32:32;40.77;;;15.27;;
13404;SDS011;6773;51.192;7.024;2022-12-24T16:34:59;37.57;;;14.30;;
13404;SDS011;6773;51.192;7.024;2022-12-24T16:37:27;24.73;;;12.53;;
13404;SDS011;6773;51.192;7.024;2022-12-24T16:39:52;30.17;;;13.90;;
13404;SDS011;6773;51.192;7.024;2022-12-24T16:42:18;26.70;;;13.90;;
13404;SDS011;6773;51.192;7.024;2022-12-24T16:45:02;21.33;;;8.10;;
13404;SDS011;6773;51.192;7.024;2022-12-24T16:47:32;21.60;;;7.70;;
13404;SDS011;6773;51.192;7.024;2022-12-24T16:49:59;32.07;;;12.17;;
13404;SDS011;6773;51.192;7.024;2022-12-24T16:52:27;16.17;;;7.93;;
13404;SDS011;6773;51.192;7.024;2022-12-24T16:54:54;23.63;;;7.33;;
13404;SDS011;6773;51.192;7.024;2022-12-24T16:57:21;17.00;;;6.37;;